My Meet Scores
Haley Merrill, CT-GymSpectrum - MyMeetScores.com
Top100 | Top Teams | Upcoming Meets | Completed Meets | Latest | Add Scores | Help| Support | Bookmark and Share

Haley Merrill, CT-GymSpectrum
Personal Bests
LevelVault BarsBeamFloorAA
39.1509.450 9.8259.25037.375
48.9009.050 9.3759.17536.500
XG9.7009.400 9.6509.70038.200
XS9.5009.425 9.5009.65037.500
Scores on America's Top 100as of 09.18.2020
Year Level Vault Bars Beam Floor AA
2015 39.825

Click here to view our exclusive Top 100 Collection
Meet Scores
Date Meet Team Session Level Division Vault Bars Beam Floor AA
2020-03-06 March Madness CT-GymSpectrum 5 XG 13 & Up 9.250 1 9.200 2 9.500 1 9.650 1 37.600 1
2020-02-21 Team Challenge 2020 CT-GymSpectrum R8 XG Inter 9.250 1 8.875 7 9.600 1 9.700 1 37.425 1
2020-01-24 2020 Kinetic Kids Invitational CT-GymSpectrum 2 XG Sr A 9.200 3T 9.025 7 9.200 3 9.425 2 36.850 3
2020-01-17 New Year's Invitational 2020 CT-GymSpectrum D XG Sr A 9.450 2T 9.200 3 9.400 6T 9.650 1 37.700 3
2019-12-14 Reindeer Games 2019 CT-GymSpectrum 6 XG Inter 9.600 1T 8.900 7T 9.450 1T 9.500 2 37.450 2
2019-12-06 Greater New York Invitational CT-GymSpectrum 7B XG Sr B 9.475 2 8.950 11T 9.225 4 9.500 3 37.150 2
2019-11-09 2019 PHS Turkey Tumble CT-GymSpectrum 5 XG Jr B 9.450 1 9.000 5 9.450 1 9.500 1 37.400 1
2019-05-18 2019 Xcel Regional Championships CT-GymSpectrum 4 XG JR 9.250 10 9.400 9T 9.425 6 9.550 7T 37.625 7
2019-04-27 Xcel Gold, Platinum, Diamond State Championsh CT-GymSpectrum 1 XG Jr B 9.525 4 9.125 17 9.650 2 9.375 2 37.675 2
2019-02-08 Team Challenge 2019 CT-GymSpectrum R10 XG Jr B 9.600 1 9.200 3T 9.650 1 9.500 1 37.950 1
2019-01-25 Kinetic Kids Invitational 2019 CT-GymSpectrum 6 XG Jr C 9.700 1T 9.350 4 9.650 1 9.500 2 38.200 1
2018-11-17 2018 Connecticut Judge's Cup CT-GymSpectrum 9 XG 11-12 yrs. 8.800 10T 9.200 10T 9.150 8T 9.000 12T 36.150 7
2018-11-10 2018 Turkey Tumble CT-GymSpectrum 3 XG Older 8.550 5 9.100 3 9.575 1 9.275 1 36.500 2
2018-05-19 2018 Region 6 Xcel Championships CT-GymSpectrum 1 XS JR B 9.300 2T 9.425 13 9.050 13T 9.100 14 36.875 7
2018-05-05 2018 CT XCEL Silver State Championships CT-GymSpectrum 1 XS Jr G 9.500 1 9.150 4T 9.200 4 9.650 1 37.500 1
2018-02-09 Team Challenge 2018 CT-GymSpectrum 03B XS Sr A 9.000 7T 9.325 4 9.500 5 8.425 9 36.250 8
2018-01-19 Kinetic Kids Invitational CT-GymSpectrum 4 XS Sr A 8.900 7 9.300 6 9.400 1 9.350 3 36.950 5
2016-02-26 2016 February Flip Gymnastics Revolution 7 4 9 yrs. 8.900 10 9.050 9T 9.375 5 9.175 6T 36.500 7T
2016-02-20 2016 Connecticut Level 4 And 5 State Meets Gymnastics Revolution 2 4 9c 8.350 14T 7.800 16 8.450 17 8.550 15 33.150 17
2016-01-29 Team Challenge 2016 Gymnastics Revolution 2B 4 Junior 7.500 19 7.600 16 8.450 12 9.150 10T 32.700 18
2015-12-04 Rhode Island Invitational Gymnastics Revolution SF3 4 Intermedia 7.900 10 7.750 13 8.850 2 8.375 10 32.875 11
2015-02-20 2015 February Flip Invitational Gymnastics Revolution 6 3 8 yr old 8.900 11T 9.250 1 9.550 2 9.175 7 36.875 2
2015-02-13 Team Challege 2015 Gymnastics Revolution B2 3 Inter 8.850 6 9.450 2 9.825 1 9.250 6T 37.375 2
2014-12-12 Rhode Island Invitational Gymnastics Revolution SF2 3 Intermed B 8.700 8T 9.025 6 9.175 2 9.125 5 36.025 7
2014-03-29 2014 Connecticut Level 3, 6 States Gymnastics Revolution 2 3 All Ages 9.000 77T 8.650 43T 8.200 56T 8.800 53T 34.650 50
2014-02-21 2014 February Flip Invitational Gymnastics Revolution 6 3 7 & under 9.150 1 8.150 5 9.750 1 8.750 1T 35.800 2
2014-01-31 Team Challenge 2014 Gymnastics Revolution 8B 3 Junior 8.900 12T 9.175 5 9.600 1 9.250 10T 36.925 4
2014-01-17 DGS Invitational Gymnastics Revolution B5 3 6-7 yrs. 8.400 7T 8.500 6 9.150 2 8.600 9 34.650 4
2013-12-26 Cape Cod New Years Classic Gymnastics Revolution 18 3 Child 8.500 8T 7.800 10 8.700 2 8.800 6 33.800 5
2013-12-06 Rhode Island Invitational Gymnastics Revolution sf1 3 Children 8.600 5T 8.300 4 7.550 8 7.600 7 32.050 6
Get your scores on
a t-shirt, pin, or hoodie

www.lazysuits.com